PENO2: Grand Lake O' The Cherokees, Pensacola Dm

Data processed at Wed 22Sep2021 02:43


All information presented herein is the property of the government of the United States of America and may be revised or deleted at any time without prior notice.
Dissemination of this information without the expressed written consent of the Public Affairs Office, Tulsa District U.S. Army Corps of Engineers is strictly prohibited.
These data are gathered electronically and, as presented, have not undergone any form of quality control. These data are not guaranteed to be valid or correct.
Go to home page.
Go to station list.

Upstream stations:

Downstream station:
Previous Day
Next Day
Current Day
    
SHEF ID:       PENO2     Pensacola (Grand Lake)
STATION TYPE:  RESERVOIR
Flood Pool:  Bottom =   742.58, Top =   755.00

               PRECIP ELEVATION   STORAGE    INFLOW   RELEASE  AIR-TEMP  WIND-DIRWIND-SPEED REL-HUMID SOLAR-RAD   VOLTAGE  BAT-LOAD
                   in        ft     ac-ft       cfs       cfs         F       deg       mph         %      W/m2      volt      volt
              Ccp-Rev   Ccp-Rev   Ccp-Rev  Rev-Regi  Rev-Regi   Ccp-Rev   Ccp-Rev   Ccp-Rev   Ccp-Rev   Ccp-Rev   Ccp-Rev   Ccp-Rev
(US/Central)
09/21 00:00      0.48    743.00   1433000      7123       649     75.06    280.87      5.88     87.46      0.00     12.70     12.49
09/21 01:00      0.00    743.10   1437090      7123       757     74.39    333.70     19.20     78.35      0.00     12.69     12.41
09/21 02:00      0.00    743.15   1439135     13506       865     71.37    335.26     20.29     78.38      0.00     12.67     12.41
09/21 03:00      0.00    743.05   1435045     12987       324     67.86    326.52     19.03     82.60      0.00     12.66     12.41
09/21 04:00      0.01    743.20   1441180      7759       324     65.03    331.99     20.05     92.05      0.00     12.64     12.41
09/21 05:00      0.06    743.19   1440771      7759       324     64.20    339.55     16.49     93.61      0.00     12.63     12.41
09/21 06:00      0.00    743.16   1439544      8714       324     64.47    346.35     13.26     91.36      0.00     12.62     12.41
09/21 07:00      0.00    743.07   1435863      3345         0     64.24    336.35     13.44     89.14      0.00     12.61     12.41
09/21 08:00      0.00    743.09   1436681      3345         0     63.63    344.47     12.25     88.26      5.00     12.60     12.41
09/21 09:00      0.00    743.14   1438726      3345         0     63.54    343.04     12.28     87.23     44.01     12.59     12.41
09/21 10:00      0.00    743.15   1439135      3345         0     63.63    335.27     14.15     86.64    104.66     12.59     12.41
09/21 11:00      0.00    743.14   1438726      2389         0     64.26    335.76     16.26     82.18    200.78     12.59     12.33
09/21 12:00      0.00    743.16   1439544         0         0     65.46    339.47     14.63     77.78    381.08     12.59     12.33
09/21 13:00      0.00    743.17   1439953         0         0     67.80    333.71     15.02     68.96    694.28     13.45     13.21
09/21 14:00      0.01    743.20   1441180         0         0     69.69    332.73     16.20     61.98    719.63     13.44     13.21
09/21 15:00      1.18    743.19   1440771         0         0     71.04    339.85     15.28     55.54    670.67     13.51     13.21
09/21 16:00      0.00    743.19   1440771         0         0     72.77    337.61     17.03     49.43    581.12     13.54     13.13
09/21 17:00      0.00    743.19   1440771         0         0     73.42    336.21     17.63     45.02    431.39     14.57     13.05
09/21 18:00      0.00    743.18   1440362         0      1085     73.60    333.41     17.43     43.78    224.96     12.92     12.97
09/21 19:00      0.00    743.18   1440362         0      1306     72.95    328.06     14.62     43.62      8.83     12.83     12.65
09/21 20:00      0.00    743.13   1438317         0      7458     71.51    344.96     10.16     46.47      0.00     12.81     12.57
09/21 21:00      0.00    743.08   1436272      ----      ----     70.36    352.44      8.07     50.65      0.00     12.80     12.57
09/21 22:00      ----      ----      ----      ----      ----      ----      ----      ----      ----      ----      ----      ----
09/21 23:00      ----      ----      ----      ----      ----      ----      ----      ----      ----      ----      ----      ----